createdAt,value
2017-11-29T00:00:22.686Z,0.00
2017-11-29T00:01:22.666Z,0.00
2017-11-29T00:02:22.639Z,0.00
2017-11-29T00:03:22.616Z,0.00
2017-11-29T00:04:22.595Z,0.00
2017-11-29T00:05:22.575Z,0.00
2017-11-29T00:06:22.552Z,0.00
2017-11-29T00:07:22.533Z,0.00
2017-11-29T00:08:22.512Z,0.00
2017-11-29T00:09:22.487Z,0.00
2017-11-29T00:10:22.467Z,0.00
2017-11-29T00:11:22.449Z,0.00
2017-11-29T00:12:22.427Z,0.00
2017-11-29T00:13:22.400Z,0.00
2017-11-29T00:14:22.377Z,0.00
2017-11-29T00:15:22.363Z,0.00
2017-11-29T00:16:22.335Z,0.00
2017-11-29T00:17:22.309Z,0.00
2017-11-29T00:18:22.287Z,0.00
2017-11-29T00:19:22.266Z,0.00
2017-11-29T00:20:22.245Z,0.00
2017-11-29T00:21:22.232Z,0.00
2017-11-29T00:22:22.203Z,0.00
2017-11-29T00:23:22.177Z,0.00
2017-11-29T00:24:22.157Z,0.00
2017-11-29T00:25:22.138Z,0.00
2017-11-29T00:26:22.117Z,0.00
2017-11-29T00:27:22.100Z,0.00
2017-11-29T00:28:22.072Z,0.00
2017-11-29T00:29:22.055Z,0.00
2017-11-29T00:30:22.029Z,0.00
2017-11-29T00:31:22.004Z,0.00
2017-11-29T00:32:21.993Z,0.00
2017-11-29T00:33:21.974Z,0.00
2017-11-29T00:34:21.944Z,0.00
2017-11-29T00:35:21.917Z,0.00
2017-11-29T00:36:21.894Z,0.00
2017-11-29T00:37:21.882Z,0.00
2017-11-29T00:38:21.852Z,0.00
2017-11-29T00:39:21.830Z,0.00
2017-11-29T00:40:21.808Z,0.00
2017-11-29T00:41:21.786Z,0.00
2017-11-29T00:42:21.765Z,0.00
2017-11-29T00:43:21.742Z,0.00
2017-11-29T00:44:21.717Z,0.00
2017-11-29T00:45:21.696Z,0.00
2017-11-29T00:46:21.687Z,0.00
2017-11-29T00:47:21.655Z,0.00
2017-11-29T00:48:21.632Z,0.00
2017-11-29T00:49:21.605Z,0.00
2017-11-29T00:50:21.585Z,0.00
2017-11-29T00:51:21.564Z,0.00
2017-11-29T00:52:21.542Z,0.00
2017-11-29T00:53:21.517Z,0.00
2017-11-29T00:54:21.497Z,0.00
2017-11-29T00:55:21.474Z,0.00
2017-11-29T00:56:21.457Z,0.00
2017-11-29T00:57:21.433Z,0.00
2017-11-29T00:58:21.410Z,0.00
2017-11-29T00:59:21.387Z,0.00
2017-11-29T01:00:21.367Z,0.00
2017-11-29T01:01:21.348Z,0.00
2017-11-29T01:02:21.325Z,0.00
2017-11-29T01:03:21.299Z,0.00
2017-11-29T01:04:21.280Z,0.00
2017-11-29T01:05:21.255Z,0.00
2017-11-29T01:06:21.241Z,0.00
2017-11-29T01:07:21.217Z,0.00
2017-11-29T01:08:21.194Z,0.00
2017-11-29T01:09:21.170Z,0.00
2017-11-29T01:10:21.150Z,0.00
2017-11-29T01:11:21.127Z,0.00
2017-11-29T01:12:21.108Z,0.00
2017-11-29T01:13:21.082Z,0.00
2017-11-29T01:14:21.065Z,0.00
2017-11-29T01:15:21.042Z,0.00
2017-11-29T01:16:21.015Z,0.00
2017-11-29T01:17:20.991Z,0.00
2017-11-29T01:18:20.966Z,0.00
2017-11-29T01:19:20.945Z,0.00
2017-11-29T01:20:20.921Z,0.00
2017-11-29T01:21:20.895Z,0.00
2017-11-29T01:22:20.875Z,0.00
2017-11-29T01:23:20.855Z,0.00
2017-11-29T01:24:20.830Z,0.00
2017-11-29T01:25:20.807Z,0.00
2017-11-29T01:26:20.798Z,0.00
2017-11-29T01:27:20.768Z,0.00
2017-11-29T01:28:20.748Z,0.00
2017-11-29T01:29:20.721Z,0.00
2017-11-29T01:30:20.699Z,0.00
2017-11-29T01:31:20.680Z,0.00
2017-11-29T01:32:20.656Z,0.00
2017-11-29T01:33:20.635Z,0.00
2017-11-29T01:34:20.611Z,0.00
2017-11-29T01:35:20.590Z,0.00
2017-11-29T01:36:20.571Z,0.00
2017-11-29T01:37:20.554Z,0.00
2017-11-29T01:38:20.528Z,0.00
2017-11-29T01:39:20.500Z,0.00
2017-11-29T01:40:20.484Z,0.00
2017-11-29T01:41:20.460Z,0.00
2017-11-29T01:42:20.435Z,0.00
2017-11-29T01:43:20.412Z,0.00
2017-11-29T01:44:20.390Z,0.00
2017-11-29T01:45:20.365Z,0.00
2017-11-29T01:46:20.344Z,0.00
2017-11-29T01:47:20.322Z,0.00
2017-11-29T01:48:20.298Z,0.00
2017-11-29T01:49:20.284Z,0.00
2017-11-29T01:50:20.256Z,0.00
2017-11-29T01:51:20.233Z,0.00
2017-11-29T01:52:20.210Z,0.00
2017-11-29T01:53:20.191Z,0.00
2017-11-29T01:54:20.166Z,0.00
2017-11-29T01:55:20.144Z,0.00
2017-11-29T01:56:20.126Z,0.00
2017-11-29T01:57:20.103Z,0.00
2017-11-29T01:58:20.079Z,0.00
2017-11-29T01:59:20.056Z,0.00
2017-11-29T02:00:20.041Z,0.00
2017-11-29T02:01:20.010Z,0.00
2017-11-29T02:02:20.003Z,0.00
2017-11-29T02:03:19.966Z,0.00
2017-11-29T02:04:19.947Z,0.00
2017-11-29T02:05:19.922Z,0.00
2017-11-29T02:06:19.903Z,0.00
2017-11-29T02:07:19.875Z,0.00
2017-11-29T02:08:19.858Z,0.00
2017-11-29T02:09:19.838Z,0.00
2017-11-29T02:10:19.810Z,0.00
2017-11-29T02:11:19.787Z,0.00
2017-11-29T02:12:19.767Z,0.00
2017-11-29T02:13:19.748Z,0.00
2017-11-29T02:14:19.727Z,0.00
2017-11-29T02:15:19.700Z,0.00
2017-11-29T02:16:19.678Z,0.00
2017-11-29T02:17:19.685Z,0.00
2017-11-29T02:18:19.639Z,0.00
2017-11-29T02:19:19.614Z,0.00
2017-11-29T02:20:19.588Z,0.00
2017-11-29T02:21:19.564Z,0.00
2017-11-29T02:22:19.547Z,0.00
2017-11-29T02:23:19.518Z,0.00
2017-11-29T02:24:19.496Z,0.00
2017-11-29T02:25:19.480Z,0.00
2017-11-29T02:26:19.454Z,0.00
2017-11-29T02:27:19.430Z,0.00
2017-11-29T02:28:19.417Z,0.00
2017-11-29T02:29:19.386Z,0.00
2017-11-29T02:30:19.373Z,0.00
2017-11-29T02:31:19.342Z,0.00
2017-11-29T02:32:19.320Z,0.00
2017-11-29T02:33:19.296Z,0.00
2017-11-29T02:34:19.279Z,0.00
2017-11-29T02:35:19.255Z,0.00
2017-11-29T02:36:19.229Z,0.00
2017-11-29T02:37:19.206Z,0.00
2017-11-29T02:38:19.183Z,0.00
2017-11-29T02:39:19.169Z,0.00
2017-11-29T02:40:19.137Z,0.00
2017-11-29T02:41:19.114Z,0.00
2017-11-29T02:42:19.096Z,0.00
2017-11-29T02:43:19.073Z,0.00
2017-11-29T02:44:19.058Z,0.00
2017-11-29T02:45:19.024Z,0.00
2017-11-29T02:46:19.004Z,0.00
2017-11-29T02:47:18.981Z,0.00
2017-11-29T02:48:18.960Z,0.00
2017-11-29T02:49:18.936Z,0.00
2017-11-29T02:50:18.916Z,0.00
2017-11-29T02:51:18.892Z,0.00
2017-11-29T02:52:18.870Z,0.00
2017-11-29T02:53:18.846Z,0.00
2017-11-29T02:54:18.831Z,0.00
2017-11-29T02:55:18.802Z,0.00
2017-11-29T02:56:18.779Z,0.00
2017-11-29T02:57:18.756Z,0.00
2017-11-29T02:58:18.735Z,0.00
2017-11-29T02:59:18.725Z,0.00
2017-11-29T03:00:18.689Z,0.00
2017-11-29T03:01:18.666Z,0.00
2017-11-29T03:02:18.644Z,0.00
2017-11-29T03:03:18.622Z,0.00
2017-11-29T03:04:18.601Z,0.00
2017-11-29T03:05:18.574Z,0.00
2017-11-29T03:06:18.554Z,0.00
2017-11-29T03:07:18.533Z,0.00
2017-11-29T03:08:18.516Z,0.00
2017-11-29T03:09:18.485Z,0.00
2017-11-29T03:10:18.466Z,0.00
2017-11-29T03:11:18.448Z,0.00
2017-11-29T03:12:18.424Z,0.00
2017-11-29T03:13:18.404Z,0.00
2017-11-29T03:14:18.381Z,0.00
2017-11-29T03:15:18.356Z,0.00
2017-11-29T03:16:18.335Z,0.00
2017-11-29T03:17:18.306Z,0.00
2017-11-29T03:18:18.290Z,0.00
2017-11-29T03:19:18.266Z,0.00
2017-11-29T03:20:18.240Z,0.00
2017-11-29T03:21:18.220Z,0.00
2017-11-29T03:22:18.198Z,0.00
2017-11-29T03:23:18.179Z,0.00
2017-11-29T03:24:18.155Z,0.00
2017-11-29T03:25:18.131Z,0.00
2017-11-29T03:26:18.105Z,0.00
2017-11-29T03:27:18.087Z,0.00
2017-11-29T03:28:18.066Z,0.00
2017-11-29T03:29:18.042Z,0.00
2017-11-29T03:30:18.017Z,0.00
2017-11-29T03:31:17.996Z,0.00
2017-11-29T03:32:17.974Z,0.00
2017-11-29T03:33:17.955Z,0.00
2017-11-29T03:34:17.931Z,0.00
2017-11-29T03:35:17.906Z,0.00
2017-11-29T03:36:17.884Z,0.00
2017-11-29T03:37:17.865Z,0.00
2017-11-29T03:38:17.842Z,0.00
2017-11-29T03:39:17.817Z,0.00
2017-11-29T03:40:17.797Z,0.00
2017-11-29T03:41:17.773Z,0.00
2017-11-29T03:42:17.758Z,0.00
2017-11-29T03:43:17.737Z,0.00
2017-11-29T03:44:17.715Z,0.00
2017-11-29T03:45:17.686Z,0.00
2017-11-29T03:46:17.668Z,0.00
2017-11-29T03:47:17.643Z,0.00
2017-11-29T03:48:17.625Z,0.00
2017-11-29T03:49:17.596Z,0.00
2017-11-29T03:50:17.576Z,0.00
2017-11-29T03:51:17.555Z,0.00
2017-11-29T03:52:17.535Z,0.00
2017-11-29T03:53:17.506Z,0.00
2017-11-29T03:54:17.486Z,0.00
2017-11-29T03:55:17.463Z,0.00
2017-11-29T03:56:17.439Z,0.00
2017-11-29T03:57:17.417Z,0.00
2017-11-29T03:58:17.395Z,0.00
2017-11-29T03:59:17.372Z,0.00
2017-11-29T04:00:17.352Z,0.00
2017-11-29T04:01:17.347Z,0.00
2017-11-29T04:02:17.304Z,0.00
2017-11-29T04:03:17.323Z,0.00
2017-11-29T04:04:17.267Z,0.00
2017-11-29T04:05:17.249Z,0.00
2017-11-29T04:06:17.218Z,0.00
2017-11-29T04:07:17.195Z,0.00
2017-11-29T04:08:17.175Z,0.00
2017-11-29T04:09:17.154Z,0.00
2017-11-29T04:10:17.127Z,0.00
2017-11-29T04:11:17.105Z,0.00
2017-11-29T04:12:17.085Z,0.00
2017-11-29T04:13:17.059Z,0.00
2017-11-29T04:14:17.046Z,0.00
2017-11-29T04:15:17.017Z,0.00
2017-11-29T04:16:16.995Z,0.00
2017-11-29T04:17:16.978Z,0.00
2017-11-29T04:18:16.949Z,0.00
2017-11-29T04:19:16.934Z,0.00
2017-11-29T04:20:16.937Z,0.00
2017-11-29T04:21:16.885Z,0.00
2017-11-29T04:22:16.861Z,0.00
2017-11-29T04:23:16.836Z,0.00
2017-11-29T04:24:16.814Z,0.00
2017-11-29T04:25:16.789Z,0.00
2017-11-29T04:26:16.775Z,0.00
2017-11-29T04:27:16.745Z,0.00
2017-11-29T04:28:16.724Z,0.00
2017-11-29T04:29:16.708Z,0.00
2017-11-29T04:30:16.679Z,0.00
2017-11-29T04:31:16.657Z,0.00
2017-11-29T04:32:16.634Z,0.00
2017-11-29T04:33:16.615Z,0.00
2017-11-29T04:34:16.590Z,0.00
2017-11-29T04:35:16.567Z,0.00
2017-11-29T04:36:16.548Z,0.00
2017-11-29T04:37:16.520Z,0.00
2017-11-29T04:38:16.503Z,0.00
2017-11-29T04:39:16.478Z,0.00
2017-11-29T04:40:16.459Z,0.00
2017-11-29T04:41:16.437Z,0.00
2017-11-29T04:42:16.408Z,0.00
2017-11-29T04:43:16.386Z,0.00
2017-11-29T04:44:16.365Z,0.00
2017-11-29T04:45:16.349Z,0.00
2017-11-29T04:46:16.322Z,0.00
2017-11-29T04:47:16.294Z,0.00
2017-11-29T04:48:16.278Z,0.00
2017-11-29T04:49:16.256Z,0.00
2017-11-29T04:50:16.230Z,0.00
2017-11-29T04:51:16.206Z,0.00
2017-11-29T04:52:16.185Z,0.00
2017-11-29T04:53:16.167Z,0.00
2017-11-29T04:54:16.141Z,0.00
2017-11-29T04:55:16.120Z,0.00
2017-11-29T04:56:16.094Z,0.00
2017-11-29T04:57:16.088Z,0.00
2017-11-29T04:58:16.052Z,0.00
2017-11-29T04:59:16.028Z,0.00
2017-11-29T05:00:16.005Z,0.00
2017-11-29T05:01:15.984Z,0.00
2017-11-29T05:02:15.965Z,0.00
2017-11-29T05:03:15.941Z,0.00
2017-11-29T05:04:15.917Z,0.00
2017-11-29T05:05:15.893Z,0.00
2017-11-29T05:06:15.874Z,0.00
2017-11-29T05:07:15.855Z,0.00
2017-11-29T05:08:15.833Z,0.00
2017-11-29T05:09:15.805Z,0.00
2017-11-29T05:10:15.788Z,0.00
2017-11-29T05:11:15.758Z,0.00
2017-11-29T05:12:15.747Z,0.00
2017-11-29T05:13:15.715Z,0.00
2017-11-29T05:14:15.695Z,0.00
2017-11-29T05:15:15.672Z,0.00
2017-11-29T05:16:15.649Z,0.00
2017-11-29T05:17:15.625Z,0.00
2017-11-29T05:18:15.605Z,0.00
2017-11-29T05:19:15.584Z,0.00
2017-11-29T05:20:15.566Z,0.00
2017-11-29T05:21:15.552Z,0.00
2017-11-29T05:22:15.515Z,0.00
2017-11-29T05:23:15.495Z,0.00
2017-11-29T05:24:15.475Z,0.00
2017-11-29T05:25:15.450Z,0.00
2017-11-29T05:26:15.425Z,0.00
2017-11-29T05:27:15.405Z,0.00
2017-11-29T05:28:15.385Z,0.00
2017-11-29T05:29:15.364Z,0.00
2017-11-29T05:30:15.337Z,0.00
2017-11-29T05:31:15.315Z,0.00
2017-11-29T05:32:15.304Z,0.00
2017-11-29T05:33:15.271Z,0.00
2017-11-29T05:34:15.248Z,0.00
2017-11-29T05:35:15.241Z,0.00
2017-11-29T05:36:15.206Z,0.00
2017-11-29T05:37:15.188Z,0.00
2017-11-29T05:38:15.156Z,0.00
2017-11-29T05:39:15.149Z,0.00
2017-11-29T05:40:15.115Z,0.00
2017-11-29T05:41:15.090Z,0.00
2017-11-29T05:42:15.066Z,0.00
2017-11-29T05:43:15.045Z,0.00
2017-11-29T05:44:15.023Z,0.00
2017-11-29T05:45:14.996Z,0.00
2017-11-29T05:46:14.984Z,0.00
2017-11-29T05:47:14.956Z,0.00
2017-11-29T05:48:14.934Z,0.00
2017-11-29T05:49:14.914Z,0.00
2017-11-29T05:50:14.887Z,0.00
2017-11-29T05:51:14.864Z,0.00
2017-11-29T05:52:14.841Z,0.00
2017-11-29T05:53:14.822Z,0.00
2017-11-29T05:54:14.796Z,0.00
2017-11-29T05:55:14.776Z,0.00
2017-11-29T05:56:14.752Z,0.00
2017-11-29T05:57:14.729Z,0.00
2017-11-29T05:58:14.705Z,0.00
2017-11-29T05:59:14.681Z,0.00
2017-11-29T06:00:14.665Z,0.00
2017-11-29T06:01:14.636Z,0.00
2017-11-29T06:02:14.620Z,0.00
2017-11-29T06:03:14.594Z,0.00
2017-11-29T06:04:14.573Z,0.00
2017-11-29T06:05:14.547Z,0.00
2017-11-29T06:06:14.523Z,0.00
2017-11-29T06:07:14.509Z,0.00
2017-11-29T06:08:14.482Z,0.00
2017-11-29T06:09:14.455Z,0.00
2017-11-29T06:10:14.436Z,0.00
2017-11-29T06:11:14.412Z,0.00
2017-11-29T06:12:14.387Z,0.00
2017-11-29T06:13:14.363Z,0.00
2017-11-29T06:14:14.346Z,0.00
2017-11-29T06:15:14.324Z,0.00
2017-11-29T06:16:14.300Z,0.00
2017-11-29T06:17:14.278Z,0.00
2017-11-29T06:18:14.255Z,0.00
2017-11-29T06:19:14.230Z,0.00
2017-11-29T06:20:14.206Z,0.00
2017-11-29T06:21:14.184Z,0.00
2017-11-29T06:22:14.162Z,0.00
2017-11-29T06:23:14.142Z,0.00
2017-11-29T06:24:14.117Z,0.00
2017-11-29T06:25:14.095Z,0.00
2017-11-29T06:26:14.070Z,0.00
2017-11-29T06:27:14.051Z,0.00
2017-11-29T06:28:14.035Z,0.00
2017-11-29T06:29:14.007Z,0.00
2017-11-29T06:30:13.983Z,0.00
2017-11-29T06:31:13.959Z,0.00
2017-11-29T06:32:13.939Z,0.00
2017-11-29T06:33:13.912Z,0.00
2017-11-29T06:34:13.893Z,0.00
2017-11-29T06:35:13.878Z,0.00
2017-11-29T06:36:13.849Z,0.00
2017-11-29T06:37:13.823Z,0.00
2017-11-29T06:38:13.801Z,0.00
2017-11-29T06:39:13.786Z,0.00
2017-11-29T06:40:13.756Z,0.00
2017-11-29T06:41:13.737Z,0.00
2017-11-29T06:42:13.713Z,0.00
2017-11-29T06:43:13.690Z,0.00
2017-11-29T06:44:13.687Z,0.00
2017-11-29T06:45:13.648Z,4.00
2017-11-29T06:46:13.623Z,0.00
2017-11-29T06:47:13.597Z,0.00
2017-11-29T06:48:13.575Z,0.00
2017-11-29T06:49:13.555Z,0.00
2017-11-29T06:50:13.533Z,4.00
2017-11-29T06:51:13.505Z,4.00
2017-11-29T06:52:13.485Z,0.00
2017-11-29T06:53:13.463Z,0.00
2017-11-29T06:54:13.445Z,0.00
2017-11-29T06:55:13.423Z,4.00
2017-11-29T06:56:13.396Z,4.00
2017-11-29T06:57:13.372Z,4.00
2017-11-29T06:58:13.350Z,0.00
2017-11-29T06:59:13.331Z,4.00
2017-11-29T07:00:13.315Z,4.00
2017-11-29T07:01:13.290Z,4.00
2017-11-29T07:02:13.263Z,4.00
2017-11-29T07:03:13.238Z,8.00
2017-11-29T07:04:13.216Z,4.00
2017-11-29T07:05:13.194Z,8.00
2017-11-29T07:06:13.175Z,8.00
2017-11-29T07:07:13.151Z,8.00
2017-11-29T07:08:13.129Z,8.00
2017-11-29T07:09:13.103Z,8.00
2017-11-29T07:10:13.086Z,12.00
2017-11-29T07:11:13.060Z,12.00
2017-11-29T07:12:13.035Z,12.00
2017-11-29T07:13:13.017Z,12.00
2017-11-29T07:14:12.992Z,12.00
2017-11-29T07:15:12.972Z,16.00
2017-11-29T07:16:12.950Z,16.00
2017-11-29T07:17:12.924Z,20.00
2017-11-29T07:18:12.908Z,20.00
2017-11-29T07:19:12.883Z,20.00
2017-11-29T07:20:12.861Z,20.00
2017-11-29T07:21:12.836Z,24.00
2017-11-29T07:22:12.818Z,28.00
2017-11-29T07:23:12.794Z,28.00
2017-11-29T07:24:12.772Z,28.00
2017-11-29T07:25:12.754Z,28.00
2017-11-29T07:26:12.724Z,32.00
2017-11-29T07:27:12.701Z,32.00
2017-11-29T07:28:12.687Z,36.00
2017-11-29T07:29:12.660Z,40.00
2017-11-29T07:30:12.637Z,36.00
2017-11-29T07:31:12.613Z,40.00
2017-11-29T07:32:12.593Z,44.00
2017-11-29T07:33:12.566Z,44.00
2017-11-29T07:34:12.544Z,44.00
2017-11-29T07:35:12.532Z,48.00
2017-11-29T07:36:12.498Z,52.00
2017-11-29T07:37:12.476Z,56.00
2017-11-29T07:38:12.454Z,60.00
2017-11-29T07:39:12.433Z,60.00
2017-11-29T07:40:12.414Z,64.00
2017-11-29T07:41:12.392Z,64.00
2017-11-29T07:42:12.367Z,68.00
2017-11-29T07:43:12.342Z,68.00
2017-11-29T07:44:12.320Z,72.00
2017-11-29T07:45:12.305Z,76.00
2017-11-29T07:46:12.274Z,76.00
2017-11-29T07:47:12.266Z,80.00
2017-11-29T07:48:12.233Z,84.00
2017-11-29T07:49:12.205Z,84.00
2017-11-29T07:50:12.190Z,88.00
2017-11-29T07:51:12.160Z,92.00
2017-11-29T07:52:12.149Z,96.00
2017-11-29T07:53:12.116Z,100.00
2017-11-29T07:54:12.094Z,100.00
2017-11-29T07:55:12.073Z,104.00
2017-11-29T07:56:12.049Z,104.00
2017-11-29T07:57:12.028Z,108.00
2017-11-29T07:58:12.006Z,112.00
2017-11-29T07:59:11.985Z,108.00
2017-11-29T08:00:11.970Z,108.00
2017-11-29T08:01:11.937Z,104.00
2017-11-29T08:02:11.915Z,108.00
2017-11-29T08:03:11.896Z,104.00
2017-11-29T08:04:11.875Z,108.00
2017-11-29T08:05:11.847Z,112.00
2017-11-29T08:06:11.829Z,116.00
2017-11-29T08:07:11.801Z,124.00
2017-11-29T08:08:11.790Z,128.00
2017-11-29T08:09:11.757Z,136.00
2017-11-29T08:10:11.737Z,140.00
2017-11-29T08:11:11.718Z,140.00
2017-11-29T08:12:11.693Z,144.00
2017-11-29T08:13:11.669Z,148.00
2017-11-29T08:14:11.646Z,152.00
2017-11-29T08:15:11.621Z,152.00
2017-11-29T08:16:11.609Z,160.00
2017-11-29T08:17:11.579Z,164.00
2017-11-29T08:18:11.564Z,168.00
2017-11-29T08:19:11.532Z,180.00
2017-11-29T08:20:11.520Z,180.00
2017-11-29T08:21:11.488Z,188.00
2017-11-29T08:22:11.468Z,196.00
2017-11-29T08:23:11.449Z,208.00
2017-11-29T08:24:11.422Z,216.00
2017-11-29T08:25:11.397Z,220.00
2017-11-29T08:26:11.377Z,228.00
2017-11-29T08:27:11.358Z,236.00
2017-11-29T08:28:11.336Z,244.00
2017-11-29T08:29:11.315Z,264.00
2017-11-29T08:30:11.286Z,264.00
2017-11-29T08:31:11.265Z,276.00
2017-11-29T08:32:11.242Z,256.00
2017-11-29T08:33:11.227Z,268.00
2017-11-29T08:34:11.196Z,288.00
2017-11-29T08:35:11.178Z,292.00
2017-11-29T08:36:11.154Z,292.00
2017-11-29T08:37:11.129Z,272.00
2017-11-29T08:38:11.107Z,264.00
2017-11-29T08:39:11.084Z,264.00
2017-11-29T08:40:11.068Z,268.00
2017-11-29T08:41:11.047Z,268.00
2017-11-29T08:42:11.027Z,264.00
2017-11-29T08:43:11.006Z,252.00
2017-11-29T08:44:10.980Z,260.00
2017-11-29T08:45:10.958Z,248.00
2017-11-29T08:46:10.926Z,216.00
2017-11-29T08:47:10.910Z,208.00
2017-11-29T08:48:10.884Z,224.00
2017-11-29T08:49:10.864Z,236.00
2017-11-29T08:50:10.838Z,248.00
2017-11-29T08:51:10.821Z,248.00
2017-11-29T08:52:10.815Z,236.00
2017-11-29T08:53:10.777Z,228.00
2017-11-29T08:54:10.756Z,236.00
2017-11-29T08:55:10.734Z,244.00
2017-11-29T08:56:10.707Z,248.00
2017-11-29T08:57:10.686Z,280.00
2017-11-29T08:58:10.668Z,284.00
2017-11-29T08:59:10.640Z,280.00
2017-11-29T09:00:10.616Z,256.00
2017-11-29T09:01:10.597Z,216.00
2017-11-29T09:02:10.577Z,192.00
2017-11-29T09:03:10.553Z,168.00
2017-11-29T09:04:10.528Z,156.00
2017-11-29T09:05:10.508Z,156.00
2017-11-29T09:06:10.487Z,156.00
2017-11-29T09:07:10.464Z,168.00
2017-11-29T09:08:10.439Z,156.00
2017-11-29T09:09:10.417Z,156.00
2017-11-29T09:10:10.396Z,156.00
2017-11-29T09:11:10.374Z,148.00
2017-11-29T09:12:10.356Z,156.00
2017-11-29T09:13:10.326Z,172.00
2017-11-29T09:14:10.310Z,176.00
2017-11-29T09:15:10.284Z,176.00
2017-11-29T09:16:10.267Z,176.00
2017-11-29T09:17:10.245Z,176.00
2017-11-29T09:18:10.216Z,172.00
2017-11-29T09:19:10.199Z,172.00
2017-11-29T09:20:10.174Z,168.00
2017-11-29T09:21:10.152Z,168.00
2017-11-29T09:22:10.130Z,180.00
2017-11-29T09:23:10.110Z,184.00
2017-11-29T09:24:10.084Z,196.00
2017-11-29T09:25:10.067Z,216.00
2017-11-29T09:26:10.044Z,208.00
2017-11-29T09:27:10.018Z,204.00
2017-11-29T09:28:09.995Z,200.00
2017-11-29T09:29:09.977Z,208.00
2017-11-29T09:30:09.950Z,212.00
2017-11-29T09:31:09.928Z,208.00
2017-11-29T09:32:09.906Z,224.00
2017-11-29T09:33:09.886Z,240.00
2017-11-29T09:34:09.862Z,240.00
2017-11-29T09:35:09.840Z,220.00
2017-11-29T09:36:09.831Z,224.00
2017-11-29T09:37:09.793Z,200.00
2017-11-29T09:38:09.776Z,196.00
2017-11-29T09:39:09.750Z,216.00
2017-11-29T09:40:09.727Z,224.00
2017-11-29T09:41:09.704Z,216.00
2017-11-29T09:42:09.688Z,208.00
2017-11-29T09:43:09.662Z,204.00
2017-11-29T09:44:09.640Z,208.00
2017-11-29T09:45:09.616Z,200.00
2017-11-29T09:46:09.591Z,192.00
2017-11-29T09:47:09.576Z,196.00
2017-11-29T09:48:09.550Z,196.00
2017-11-29T09:49:09.531Z,200.00
2017-11-29T09:50:09.513Z,208.00
2017-11-29T09:51:09.485Z,208.00
2017-11-29T09:52:09.461Z,204.00
2017-11-29T09:53:09.440Z,220.00
2017-11-29T09:54:09.427Z,216.00
2017-11-29T09:55:09.394Z,216.00
2017-11-29T09:56:09.403Z,228.00
2017-11-29T09:57:09.353Z,216.00
2017-11-29T09:58:09.323Z,204.00
2017-11-29T09:59:09.298Z,224.00
2017-11-29T10:00:09.276Z,240.00
2017-11-29T10:01:09.267Z,232.00
2017-11-29T10:02:09.236Z,200.00
2017-11-29T10:03:09.215Z,212.00
2017-11-29T10:04:09.186Z,232.00
2017-11-29T10:05:09.164Z,224.00
2017-11-29T10:06:09.147Z,212.00
2017-11-29T10:07:09.124Z,196.00
2017-11-29T10:08:09.108Z,192.00
2017-11-29T10:09:09.083Z,208.00
2017-11-29T10:10:09.063Z,212.00
2017-11-29T10:11:09.039Z,208.00
2017-11-29T10:12:09.014Z,188.00
2017-11-29T10:13:08.987Z,176.00
2017-11-29T10:14:08.967Z,168.00
2017-11-29T10:15:08.946Z,168.00
2017-11-29T10:16:08.919Z,164.00
2017-11-29T10:17:08.894Z,168.00
2017-11-29T10:18:08.882Z,160.00
2017-11-29T10:19:08.854Z,156.00
2017-11-29T10:20:08.831Z,152.00
2017-11-29T10:21:08.825Z,156.00
2017-11-29T10:22:08.784Z,172.00
2017-11-29T10:23:08.767Z,168.00
2017-11-29T10:24:08.746Z,180.00
2017-11-29T10:25:08.717Z,180.00
2017-11-29T10:26:08.697Z,168.00
2017-11-29T10:27:08.674Z,180.00
2017-11-29T10:28:08.649Z,176.00
2017-11-29T10:29:08.626Z,168.00
2017-11-29T10:30:08.608Z,176.00
2017-11-29T10:31:08.588Z,168.00
2017-11-29T10:32:08.562Z,160.00
2017-11-29T10:33:08.542Z,148.00
2017-11-29T10:34:08.515Z,156.00
2017-11-29T10:35:08.491Z,152.00
2017-11-29T10:36:08.476Z,152.00
2017-11-29T10:37:08.446Z,140.00
2017-11-29T10:38:08.427Z,136.00
2017-11-29T10:39:08.405Z,144.00
2017-11-29T10:40:08.379Z,140.00
2017-11-29T10:41:08.357Z,128.00
2017-11-29T10:42:08.339Z,132.00
2017-11-29T10:43:08.312Z,132.00
2017-11-29T10:44:08.300Z,124.00
2017-11-29T10:45:08.268Z,108.00
2017-11-29T10:46:08.245Z,92.00
2017-11-29T10:47:08.222Z,76.00
2017-11-29T10:48:08.203Z,64.00
2017-11-29T10:49:08.181Z,64.00
2017-11-29T10:50:08.159Z,60.00
2017-11-29T10:51:08.135Z,56.00
2017-11-29T10:52:08.118Z,60.00
2017-11-29T10:53:08.089Z,72.00
2017-11-29T10:54:08.065Z,88.00
2017-11-29T10:55:08.048Z,108.00
2017-11-29T10:56:08.024Z,120.00
2017-11-29T10:57:07.998Z,140.00
2017-11-29T10:58:07.982Z,148.00
2017-11-29T10:59:07.953Z,136.00
2017-11-29T11:00:07.940Z,148.00
2017-11-29T11:01:07.908Z,172.00
2017-11-29T11:02:07.900Z,184.00
2017-11-29T11:03:07.865Z,192.00
2017-11-29T11:04:07.841Z,196.00
2017-11-29T11:05:07.818Z,216.00
2017-11-29T11:06:07.799Z,208.00
2017-11-29T11:07:07.777Z,196.00
2017-11-29T11:08:07.753Z,200.00
2017-11-29T11:09:07.734Z,216.00
2017-11-29T11:10:07.713Z,208.00
2017-11-29T11:11:07.688Z,196.00
2017-11-29T11:12:07.676Z,208.00
2017-11-29T11:13:07.642Z,240.00
2017-11-29T11:14:07.627Z,248.00
2017-11-29T11:15:07.596Z,252.00
2017-11-29T11:16:07.582Z,260.00
2017-11-29T11:17:07.549Z,248.00
2017-11-29T11:18:07.527Z,228.00
2017-11-29T11:19:07.504Z,232.00
2017-11-29T11:20:07.490Z,240.00
2017-11-29T11:21:07.456Z,256.00
2017-11-29T11:22:07.442Z,248.00
2017-11-29T11:23:07.413Z,212.00
2017-11-29T11:24:07.398Z,192.00
2017-11-29T11:25:07.366Z,188.00
2017-11-29T11:26:07.375Z,188.00
2017-11-29T11:27:07.326Z,188.00
2017-11-29T11:28:07.302Z,184.00
2017-11-29T11:29:07.279Z,196.00
2017-11-29T11:30:07.256Z,200.00
2017-11-29T11:31:07.236Z,204.00
2017-11-29T11:32:07.218Z,192.00
2017-11-29T11:33:07.190Z,188.00
2017-11-29T11:34:07.175Z,204.00
2017-11-29T11:35:07.147Z,224.00
2017-11-29T11:36:07.122Z,240.00
2017-11-29T11:37:07.104Z,216.00
2017-11-29T11:38:07.078Z,208.00
2017-11-29T11:39:07.056Z,196.00
2017-11-29T11:40:07.033Z,192.00
2017-11-29T11:41:07.010Z,180.00
2017-11-29T11:42:06.987Z,168.00
2017-11-29T11:43:06.976Z,156.00
2017-11-29T11:44:06.954Z,144.00
2017-11-29T11:45:06.923Z,116.00
2017-11-29T11:46:06.899Z,92.00
2017-11-29T11:47:06.876Z,80.00
2017-11-29T11:48:06.857Z,72.00
2017-11-29T11:49:06.831Z,68.00
2017-11-29T11:50:06.813Z,72.00
2017-11-29T11:51:06.786Z,72.00
2017-11-29T11:52:06.768Z,76.00
2017-11-29T11:53:06.747Z,80.00
2017-11-29T11:54:06.740Z,84.00
2017-11-29T11:55:06.700Z,96.00
2017-11-29T11:56:06.679Z,96.00
2017-11-29T11:57:06.652Z,96.00
2017-11-29T11:58:06.637Z,92.00
2017-11-29T11:59:06.611Z,88.00
2017-11-29T12:00:06.590Z,88.00
2017-11-29T12:01:06.570Z,84.00
2017-11-29T12:02:06.550Z,84.00
2017-11-29T12:03:06.526Z,80.00
2017-11-29T12:04:06.502Z,84.00
2017-11-29T12:05:06.477Z,96.00
2017-11-29T12:06:06.459Z,108.00
2017-11-29T12:07:06.437Z,100.00
2017-11-29T12:08:06.420Z,100.00
2017-11-29T12:09:06.388Z,100.00
2017-11-29T12:10:06.365Z,96.00
2017-11-29T12:11:06.342Z,104.00
2017-11-29T12:12:06.328Z,112.00
2017-11-29T12:13:06.301Z,120.00
2017-11-29T12:14:06.277Z,124.00
2017-11-29T12:15:06.255Z,128.00
2017-11-29T12:16:06.239Z,128.00
2017-11-29T12:17:06.216Z,132.00
2017-11-29T12:18:06.188Z,140.00
2017-11-29T12:19:06.171Z,144.00
2017-11-29T12:20:06.149Z,148.00
2017-11-29T12:21:06.124Z,152.00
2017-11-29T12:22:06.097Z,156.00
2017-11-29T12:23:06.076Z,156.00
2017-11-29T12:24:06.057Z,156.00
2017-11-29T12:25:06.038Z,156.00
2017-11-29T12:26:06.008Z,156.00
2017-11-29T12:27:05.998Z,168.00
2017-11-29T12:28:05.968Z,192.00
2017-11-29T12:29:05.943Z,208.00
2017-11-29T12:30:05.920Z,220.00
2017-11-29T12:31:05.900Z,228.00
2017-11-29T12:32:05.889Z,224.00
2017-11-29T12:33:05.855Z,220.00
2017-11-29T12:34:05.837Z,224.00
2017-11-29T12:35:05.813Z,236.00
2017-11-29T12:36:05.791Z,244.00
2017-11-29T12:37:05.777Z,248.00
2017-11-29T12:38:05.745Z,252.00
2017-11-29T12:39:05.728Z,248.00
2017-11-29T12:40:05.704Z,252.00
2017-11-29T12:41:05.678Z,256.00
2017-11-29T12:42:05.661Z,252.00
2017-11-29T12:43:05.644Z,244.00
2017-11-29T12:44:05.616Z,236.00
2017-11-29T12:45:05.594Z,228.00
2017-11-29T12:46:05.567Z,228.00
2017-11-29T12:47:05.549Z,232.00
2017-11-29T12:48:05.520Z,240.00
2017-11-29T12:49:05.503Z,260.00
2017-11-29T12:50:05.473Z,248.00
2017-11-29T12:51:05.466Z,220.00
2017-11-29T12:52:05.431Z,220.00
2017-11-29T12:53:05.413Z,228.00
2017-11-29T12:54:05.385Z,236.00
2017-11-29T12:55:05.364Z,232.00
2017-11-29T12:56:05.345Z,220.00
2017-11-29T12:57:05.324Z,216.00